sensor_id;sensor_type;location;lat;lon;timestamp;temperature;humidity
10722;DHT22;5412;59.450;18.124;2024-01-15T00:02:07;-2.20;99.90
10722;DHT22;5412;59.450;18.124;2024-01-15T00:04:40;-2.10;99.90
10722;DHT22;5412;59.450;18.124;2024-01-15T00:07:06;-2.20;99.90
10722;DHT22;5412;59.450;18.124;2024-01-15T00:09:32;-2.30;99.90
10722;DHT22;5412;59.450;18.124;2024-01-15T00:11:59;-2.30;99.90
10722;DHT22;5412;59.450;18.124;2024-01-15T00:14:25;-2.20;99.90
10722;DHT22;5412;59.450;18.124;2024-01-15T00:16:51;-2.30;99.90
10722;DHT22;5412;59.450;18.124;2024-01-15T00:19:17;-2.40;99.90
10722;DHT22;5412;59.450;18.124;2024-01-15T00:21:44;-2.30;99.90
10722;DHT22;5412;59.450;18.124;2024-01-15T00:24:09;-2.40;99.90
10722;DHT22;5412;59.450;18.124;2024-01-15T00:26:35;-2.20;99.90
10722;DHT22;5412;59.450;18.124;2024-01-15T00:29:01;-2.30;99.90
10722;DHT22;5412;59.450;18.124;2024-01-15T00:31:29;-2.50;99.90
10722;DHT22;5412;59.450;18.124;2024-01-15T00:33:55;-2.40;99.90
10722;DHT22;5412;59.450;18.124;2024-01-15T00:36:21;-2.40;99.90
10722;DHT22;5412;59.450;18.124;2024-01-15T00:38:47;-2.40;99.90
10722;DHT22;5412;59.450;18.124;2024-01-15T00:41:13;-2.40;99.90
10722;DHT22;5412;59.450;18.124;2024-01-15T00:43:39;-2.40;99.90
10722;DHT22;5412;59.450;18.124;2024-01-15T00:46:05;-2.30;99.90
10722;DHT22;5412;59.450;18.124;2024-01-15T00:48:31;-2.20;99.90
10722;DHT22;5412;59.450;18.124;2024-01-15T00:50:57;-2.10;99.90
10722;DHT22;5412;59.450;18.124;2024-01-15T00:53:22;-2.30;99.90
10722;DHT22;5412;59.450;18.124;2024-01-15T00:55:48;-2.40;99.90
10722;DHT22;5412;59.450;18.124;2024-01-15T00:58:15;-2.40;99.90
10722;DHT22;5412;59.450;18.124;2024-01-15T01:00:41;-2.50;99.90
10722;DHT22;5412;59.450;18.124;2024-01-15T01:03:07;-2.40;99.90
10722;DHT22;5412;59.450;18.124;2024-01-15T01:05:34;-2.40;99.90
10722;DHT22;5412;59.450;18.124;2024-01-15T01:08:00;-2.20;99.90
10722;DHT22;5412;59.450;18.124;2024-01-15T01:10:26;-2.30;99.90
10722;DHT22;5412;59.450;18.124;2024-01-15T01:12:52;-2.20;99.90
10722;DHT22;5412;59.450;18.124;2024-01-15T01:15:17;-2.20;99.90
10722;DHT22;5412;59.450;18.124;2024-01-15T01:17:43;-2.10;99.90
10722;DHT22;5412;59.450;18.124;2024-01-15T01:20:09;-2.20;99.90
10722;DHT22;5412;59.450;18.124;2024-01-15T01:22:36;-2.30;99.90
10722;DHT22;5412;59.450;18.124;2024-01-15T01:25:02;-2.30;99.90
10722;DHT22;5412;59.450;18.124;2024-01-15T01:27:28;-2.50;99.90
10722;DHT22;5412;59.450;18.124;2024-01-15T01:29:54;-2.50;99.90
10722;DHT22;5412;59.450;18.124;2024-01-15T01:32:19;-2.40;99.90
10722;DHT22;5412;59.450;18.124;2024-01-15T01:34:45;-2.40;99.90
10722;DHT22;5412;59.450;18.124;2024-01-15T01:37:11;-2.30;99.90
10722;DHT22;5412;59.450;18.124;2024-01-15T01:39:41;-2.50;99.90
10722;DHT22;5412;59.450;18.124;2024-01-15T01:42:07;-2.30;99.90
10722;DHT22;5412;59.450;18.124;2024-01-15T01:44:33;-2.40;99.90
10722;DHT22;5412;59.450;18.124;2024-01-15T01:46:59;-2.40;99.90
10722;DHT22;5412;59.450;18.124;2024-01-15T01:49:27;-2.50;99.90
10722;DHT22;5412;59.450;18.124;2024-01-15T01:51:55;-1.80;99.90
10722;DHT22;5412;59.450;18.124;2024-01-15T01:54:22;-2.60;99.90
10722;DHT22;5412;59.450;18.124;2024-01-15T01:56:48;-2.70;99.90
10722;DHT22;5412;59.450;18.124;2024-01-15T01:59:14;-2.60;99.90
10722;DHT22;5412;59.450;18.124;2024-01-15T02:01:41;-2.70;99.90
10722;DHT22;5412;59.450;18.124;2024-01-15T02:04:07;-2.70;99.90
10722;DHT22;5412;59.450;18.124;2024-01-15T02:06:34;-2.50;99.90
10722;DHT22;5412;59.450;18.124;2024-01-15T02:08:59;-2.50;99.90
10722;DHT22;5412;59.450;18.124;2024-01-15T02:11:26;-2.50;99.90
10722;DHT22;5412;59.450;18.124;2024-01-15T02:13:52;-2.60;99.90
10722;DHT22;5412;59.450;18.124;2024-01-15T02:16:17;-2.60;99.90
10722;DHT22;5412;59.450;18.124;2024-01-15T02:18:44;-2.60;99.90
10722;DHT22;5412;59.450;18.124;2024-01-15T02:21:11;-2.70;99.90
10722;DHT22;5412;59.450;18.124;2024-01-15T02:23:38;-2.70;99.90
10722;DHT22;5412;59.450;18.124;2024-01-15T02:26:05;-2.90;99.90
10722;DHT22;5412;59.450;18.124;2024-01-15T02:28:32;-3.00;99.90
10722;DHT22;5412;59.450;18.124;2024-01-15T02:30:58;-2.90;99.90
10722;DHT22;5412;59.450;18.124;2024-01-15T02:33:24;-2.90;99.90
10722;DHT22;5412;59.450;18.124;2024-01-15T02:35:49;-2.90;99.90
10722;DHT22;5412;59.450;18.124;2024-01-15T02:38:18;-2.90;99.90
10722;DHT22;5412;59.450;18.124;2024-01-15T02:40:44;-2.90;99.90
10722;DHT22;5412;59.450;18.124;2024-01-15T02:43:10;-2.80;99.90
10722;DHT22;5412;59.450;18.124;2024-01-15T02:45:36;-2.80;99.90
10722;DHT22;5412;59.450;18.124;2024-01-15T02:48:02;-2.80;99.90
10722;DHT22;5412;59.450;18.124;2024-01-15T02:50:27;-2.90;99.90
10722;DHT22;5412;59.450;18.124;2024-01-15T02:52:53;-2.90;99.90
10722;DHT22;5412;59.450;18.124;2024-01-15T02:55:19;-3.90;99.90
10722;DHT22;5412;59.450;18.124;2024-01-15T02:57:45;-3.10;99.90
10722;DHT22;5412;59.450;18.124;2024-01-15T03:00:11;-3.00;99.90
10722;DHT22;5412;59.450;18.124;2024-01-15T03:02:40;-3.20;99.90
10722;DHT22;5412;59.450;18.124;2024-01-15T03:05:09;-3.10;99.90
10722;DHT22;5412;59.450;18.124;2024-01-15T03:07:35;-3.30;99.90
10722;DHT22;5412;59.450;18.124;2024-01-15T03:10:01;-3.30;99.90
10722;DHT22;5412;59.450;18.124;2024-01-15T03:12:26;-3.20;99.90
10722;DHT22;5412;59.450;18.124;2024-01-15T03:14:52;-3.20;99.90
10722;DHT22;5412;59.450;18.124;2024-01-15T03:17:18;-3.20;99.90
10722;DHT22;5412;59.450;18.124;2024-01-15T03:19:44;-3.20;99.90
10722;DHT22;5412;59.450;18.124;2024-01-15T03:22:09;-3.10;99.90
10722;DHT22;5412;59.450;18.124;2024-01-15T03:24:35;-3.10;99.90
10722;DHT22;5412;59.450;18.124;2024-01-15T03:27:02;-3.20;99.90
10722;DHT22;5412;59.450;18.124;2024-01-15T03:29:27;-3.20;99.90
10722;DHT22;5412;59.450;18.124;2024-01-15T03:31:53;-3.10;99.90
10722;DHT22;5412;59.450;18.124;2024-01-15T03:34:19;-3.20;99.90
10722;DHT22;5412;59.450;18.124;2024-01-15T03:36:45;-3.20;99.90
10722;DHT22;5412;59.450;18.124;2024-01-15T03:39:10;-3.10;99.90
10722;DHT22;5412;59.450;18.124;2024-01-15T03:41:36;-3.10;99.90
10722;DHT22;5412;59.450;18.124;2024-01-15T03:44:02;-3.10;99.90
10722;DHT22;5412;59.450;18.124;2024-01-15T03:46:28;-3.20;99.90
10722;DHT22;5412;59.450;18.124;2024-01-15T03:48:53;-3.20;99.90
10722;DHT22;5412;59.450;18.124;2024-01-15T03:51:20;-3.20;99.90
10722;DHT22;5412;59.450;18.124;2024-01-15T03:53:46;-3.30;99.90
10722;DHT22;5412;59.450;18.124;2024-01-15T03:56:12;-3.20;99.90
10722;DHT22;5412;59.450;18.124;2024-01-15T03:58:37;-3.10;99.90
10722;DHT22;5412;59.450;18.124;2024-01-15T04:01:03;-3.40;99.90
10722;DHT22;5412;59.450;18.124;2024-01-15T04:03:29;-3.50;99.90
10722;DHT22;5412;59.450;18.124;2024-01-15T04:05:54;-3.40;99.90
10722;DHT22;5412;59.450;18.124;2024-01-15T04:08:20;-3.40;99.90
10722;DHT22;5412;59.450;18.124;2024-01-15T04:10:46;-3.50;99.90
10722;DHT22;5412;59.450;18.124;2024-01-15T04:13:12;-3.40;99.90
10722;DHT22;5412;59.450;18.124;2024-01-15T04:15:37;-3.50;99.90
10722;DHT22;5412;59.450;18.124;2024-01-15T04:18:03;-3.60;99.90
10722;DHT22;5412;59.450;18.124;2024-01-15T04:20:29;-3.60;99.90
10722;DHT22;5412;59.450;18.124;2024-01-15T04:22:55;-3.60;99.90
10722;DHT22;5412;59.450;18.124;2024-01-15T04:25:20;-3.50;99.90
10722;DHT22;5412;59.450;18.124;2024-01-15T04:27:46;-3.50;99.90
10722;DHT22;5412;59.450;18.124;2024-01-15T04:30:12;-3.50;99.90
10722;DHT22;5412;59.450;18.124;2024-01-15T04:32:38;-3.60;99.90
10722;DHT22;5412;59.450;18.124;2024-01-15T04:35:04;-3.60;99.90
10722;DHT22;5412;59.450;18.124;2024-01-15T04:37:29;-3.60;99.90
10722;DHT22;5412;59.450;18.124;2024-01-15T04:39:55;-3.60;99.90
10722;DHT22;5412;59.450;18.124;2024-01-15T04:42:23;-3.60;99.90
10722;DHT22;5412;59.450;18.124;2024-01-15T04:44:48;-3.50;99.90
10722;DHT22;5412;59.450;18.124;2024-01-15T04:47:14;-3.50;99.90
10722;DHT22;5412;59.450;18.124;2024-01-15T04:49:40;-3.50;99.90
10722;DHT22;5412;59.450;18.124;2024-01-15T04:52:06;-3.60;99.90
10722;DHT22;5412;59.450;18.124;2024-01-15T04:54:31;-3.60;99.90
10722;DHT22;5412;59.450;18.124;2024-01-15T04:56:58;-3.60;99.90
10722;DHT22;5412;59.450;18.124;2024-01-15T04:59:23;-3.50;99.90
10722;DHT22;5412;59.450;18.124;2024-01-15T05:01:49;-3.50;99.90
10722;DHT22;5412;59.450;18.124;2024-01-15T05:04:15;-3.50;99.90
10722;DHT22;5412;59.450;18.124;2024-01-15T05:06:40;-3.50;99.90
10722;DHT22;5412;59.450;18.124;2024-01-15T05:09:06;-3.70;99.90
10722;DHT22;5412;59.450;18.124;2024-01-15T05:11:32;-3.60;99.90
10722;DHT22;5412;59.450;18.124;2024-01-15T05:13:58;-3.50;99.90
10722;DHT22;5412;59.450;18.124;2024-01-15T05:16:24;-3.70;99.90
10722;DHT22;5412;59.450;18.124;2024-01-15T05:18:49;-3.70;99.90
10722;DHT22;5412;59.450;18.124;2024-01-15T05:21:15;-3.70;99.90
10722;DHT22;5412;59.450;18.124;2024-01-15T05:23:41;-3.60;99.90
10722;DHT22;5412;59.450;18.124;2024-01-15T05:26:07;-3.60;99.90
10722;DHT22;5412;59.450;18.124;2024-01-15T05:28:34;-3.60;99.90
10722;DHT22;5412;59.450;18.124;2024-01-15T05:31:01;-3.80;99.90
10722;DHT22;5412;59.450;18.124;2024-01-15T05:33:26;-3.80;99.90
10722;DHT22;5412;59.450;18.124;2024-01-15T05:35:52;-3.80;99.90
10722;DHT22;5412;59.450;18.124;2024-01-15T05:38:19;-3.80;99.90
10722;DHT22;5412;59.450;18.124;2024-01-15T05:40:45;-3.80;99.90
10722;DHT22;5412;59.450;18.124;2024-01-15T05:43:10;-3.80;99.90
10722;DHT22;5412;59.450;18.124;2024-01-15T05:45:38;-3.80;99.90
10722;DHT22;5412;59.450;18.124;2024-01-15T05:48:05;-3.80;99.90
10722;DHT22;5412;59.450;18.124;2024-01-15T05:50:30;-3.80;99.90
10722;DHT22;5412;59.450;18.124;2024-01-15T05:52:56;-3.80;99.90
10722;DHT22;5412;59.450;18.124;2024-01-15T05:55:22;-3.80;99.90
10722;DHT22;5412;59.450;18.124;2024-01-15T05:57:47;-3.80;99.90
10722;DHT22;5412;59.450;18.124;2024-01-15T06:00:13;-3.80;99.90
10722;DHT22;5412;59.450;18.124;2024-01-15T06:02:39;-3.70;99.90
10722;DHT22;5412;59.450;18.124;2024-01-15T06:05:05;-3.70;99.90
10722;DHT22;5412;59.450;18.124;2024-01-15T06:07:33;-3.70;99.90
10722;DHT22;5412;59.450;18.124;2024-01-15T06:09:58;-3.70;99.90
10722;DHT22;5412;59.450;18.124;2024-01-15T06:12:24;-3.80;99.90
10722;DHT22;5412;59.450;18.124;2024-01-15T06:14:50;-3.90;99.90
10722;DHT22;5412;59.450;18.124;2024-01-15T06:17:16;-3.90;99.90
10722;DHT22;5412;59.450;18.124;2024-01-15T06:19:41;-3.90;99.90
10722;DHT22;5412;59.450;18.124;2024-01-15T06:22:07;-3.90;99.90
10722;DHT22;5412;59.450;18.124;2024-01-15T06:24:33;-3.90;99.90
10722;DHT22;5412;59.450;18.124;2024-01-15T06:26:59;-3.90;99.90
10722;DHT22;5412;59.450;18.124;2024-01-15T06:29:26;-3.80;99.90
10722;DHT22;5412;59.450;18.124;2024-01-15T06:31:52;-3.90;99.90
10722;DHT22;5412;59.450;18.124;2024-01-15T06:34:18;-3.80;99.90
10722;DHT22;5412;59.450;18.124;2024-01-15T06:36:44;-4.00;99.90
10722;DHT22;5412;59.450;18.124;2024-01-15T06:39:10;-3.90;99.90
10722;DHT22;5412;59.450;18.124;2024-01-15T06:41:36;-4.00;99.90
10722;DHT22;5412;59.450;18.124;2024-01-15T06:44:12;-3.90;99.90
10722;DHT22;5412;59.450;18.124;2024-01-15T06:46:45;-3.90;99.90
10722;DHT22;5412;59.450;18.124;2024-01-15T06:49:11;-4.10;99.90
10722;DHT22;5412;59.450;18.124;2024-01-15T06:51:37;-4.00;99.90
10722;DHT22;5412;59.450;18.124;2024-01-15T06:54:03;-4.20;99.90
10722;DHT22;5412;59.450;18.124;2024-01-15T06:56:29;-4.20;99.90
10722;DHT22;5412;59.450;18.124;2024-01-15T06:58:55;-4.20;99.90
10722;DHT22;5412;59.450;18.124;2024-01-15T07:01:21;-4.10;99.90
10722;DHT22;5412;59.450;18.124;2024-01-15T07:03:46;-4.10;99.90
10722;DHT22;5412;59.450;18.124;2024-01-15T07:06:12;-4.10;99.90
10722;DHT22;5412;59.450;18.124;2024-01-15T07:08:39;-3.90;99.90
10722;DHT22;5412;59.450;18.124;2024-01-15T07:11:05;-3.90;99.90
10722;DHT22;5412;59.450;18.124;2024-01-15T07:13:31;-4.00;99.90
10722;DHT22;5412;59.450;18.124;2024-01-15T07:15:57;-4.10;99.90
10722;DHT22;5412;59.450;18.124;2024-01-15T07:18:23;-4.00;99.90
10722;DHT22;5412;59.450;18.124;2024-01-15T07:20:49;-4.00;99.90
10722;DHT22;5412;59.450;18.124;2024-01-15T07:23:15;-4.10;99.90
10722;DHT22;5412;59.450;18.124;2024-01-15T07:25:41;-4.10;99.90
10722;DHT22;5412;59.450;18.124;2024-01-15T07:28:06;-4.00;99.90
10722;DHT22;5412;59.450;18.124;2024-01-15T07:30:32;-4.00;99.90
10722;DHT22;5412;59.450;18.124;2024-01-15T07:32:58;-4.10;99.90
10722;DHT22;5412;59.450;18.124;2024-01-15T07:35:24;-4.10;99.90
10722;DHT22;5412;59.450;18.124;2024-01-15T07:37:49;-3.90;99.90
10722;DHT22;5412;59.450;18.124;2024-01-15T07:40:15;-3.90;99.90
10722;DHT22;5412;59.450;18.124;2024-01-15T07:42:41;-4.10;99.90
10722;DHT22;5412;59.450;18.124;2024-01-15T07:45:08;-4.10;99.90
10722;DHT22;5412;59.450;18.124;2024-01-15T07:47:34;-4.20;99.90
10722;DHT22;5412;59.450;18.124;2024-01-15T07:50:00;-4.10;99.90
10722;DHT22;5412;59.450;18.124;2024-01-15T07:52:26;-3.80;99.90
10722;DHT22;5412;59.450;18.124;2024-01-15T07:54:52;-3.80;99.90
10722;DHT22;5412;59.450;18.124;2024-01-15T07:57:18;-3.80;99.90
10722;DHT22;5412;59.450;18.124;2024-01-15T07:59:43;-3.80;99.90
10722;DHT22;5412;59.450;18.124;2024-01-15T08:02:09;-3.80;99.90
10722;DHT22;5412;59.450;18.124;2024-01-15T08:04:37;-3.80;99.90
10722;DHT22;5412;59.450;18.124;2024-01-15T08:07:04;-3.80;99.90
10722;DHT22;5412;59.450;18.124;2024-01-15T08:09:31;-3.90;99.90
10722;DHT22;5412;59.450;18.124;2024-01-15T08:11:56;-4.00;99.90
10722;DHT22;5412;59.450;18.124;2024-01-15T08:14:22;-4.10;99.90
10722;DHT22;5412;59.450;18.124;2024-01-15T08:16:48;-4.10;99.90
10722;DHT22;5412;59.450;18.124;2024-01-15T08:19:13;-4.00;99.90
10722;DHT22;5412;59.450;18.124;2024-01-15T08:21:39;-3.90;99.90
10722;DHT22;5412;59.450;18.124;2024-01-15T08:24:05;-3.90;99.90
10722;DHT22;5412;59.450;18.124;2024-01-15T08:26:31;-4.00;99.90
10722;DHT22;5412;59.450;18.124;2024-01-15T08:29:00;-4.00;99.90
10722;DHT22;5412;59.450;18.124;2024-01-15T08:31:26;-4.00;99.90
10722;DHT22;5412;59.450;18.124;2024-01-15T08:33:52;-4.00;99.90
10722;DHT22;5412;59.450;18.124;2024-01-15T08:36:18;-3.90;99.90
10722;DHT22;5412;59.450;18.124;2024-01-15T08:38:44;-3.90;99.90
10722;DHT22;5412;59.450;18.124;2024-01-15T08:41:10;-3.90;99.90
10722;DHT22;5412;59.450;18.124;2024-01-15T08:43:36;-3.90;99.90
10722;DHT22;5412;59.450;18.124;2024-01-15T08:46:02;-4.00;99.90
10722;DHT22;5412;59.450;18.124;2024-01-15T08:48:28;-4.00;99.90
10722;DHT22;5412;59.450;18.124;2024-01-15T08:50:54;-3.90;99.90
10722;DHT22;5412;59.450;18.124;2024-01-15T08:53:20;-4.00;99.90
10722;DHT22;5412;59.450;18.124;2024-01-15T08:55:46;-4.00;99.90
10722;DHT22;5412;59.450;18.124;2024-01-15T08:58:13;-3.90;99.90
10722;DHT22;5412;59.450;18.124;2024-01-15T09:00:39;-4.00;99.90
10722;DHT22;5412;59.450;18.124;2024-01-15T09:03:05;-3.90;99.90
10722;DHT22;5412;59.450;18.124;2024-01-15T09:05:31;-3.80;99.90
10722;DHT22;5412;59.450;18.124;2024-01-15T09:07:57;-4.00;99.90
10722;DHT22;5412;59.450;18.124;2024-01-15T09:10:22;-3.90;99.90
10722;DHT22;5412;59.450;18.124;2024-01-15T09:12:48;-3.90;99.90
10722;DHT22;5412;59.450;18.124;2024-01-15T09:15:17;-4.00;99.90
10722;DHT22;5412;59.450;18.124;2024-01-15T09:17:43;-4.00;99.90
10722;DHT22;5412;59.450;18.124;2024-01-15T09:20:09;-3.80;99.90
10722;DHT22;5412;59.450;18.124;2024-01-15T09:22:35;-3.70;99.90
10722;DHT22;5412;59.450;18.124;2024-01-15T09:25:04;-3.80;99.90
10722;DHT22;5412;59.450;18.124;2024-01-15T09:27:30;-3.60;99.90
10722;DHT22;5412;59.450;18.124;2024-01-15T09:29:56;-3.60;99.90
10722;DHT22;5412;59.450;18.124;2024-01-15T09:32:21;-3.70;99.90
10722;DHT22;5412;59.450;18.124;2024-01-15T09:34:47;-3.70;99.90
10722;DHT22;5412;59.450;18.124;2024-01-15T09:37:16;-3.90;99.90
10722;DHT22;5412;59.450;18.124;2024-01-15T09:39:42;-3.90;99.90
10722;DHT22;5412;59.450;18.124;2024-01-15T09:42:08;-3.80;99.90
10722;DHT22;5412;59.450;18.124;2024-01-15T09:44:34;-3.90;99.90
10722;DHT22;5412;59.450;18.124;2024-01-15T09:47:00;-3.70;99.90
10722;DHT22;5412;59.450;18.124;2024-01-15T09:49:26;-3.80;99.90
10722;DHT22;5412;59.450;18.124;2024-01-15T09:51:52;-3.80;99.90
10722;DHT22;5412;59.450;18.124;2024-01-15T09:54:18;-3.70;99.90
10722;DHT22;5412;59.450;18.124;2024-01-15T09:56:47;-3.60;99.90
10722;DHT22;5412;59.450;18.124;2024-01-15T09:59:19;-3.80;99.90
10722;DHT22;5412;59.450;18.124;2024-01-15T10:01:46;-3.70;99.90
10722;DHT22;5412;59.450;18.124;2024-01-15T10:04:14;-2.40;99.90
10722;DHT22;5412;59.450;18.124;2024-01-15T10:06:44;-3.70;99.90
10722;DHT22;5412;59.450;18.124;2024-01-15T10:09:12;-3.70;99.90
10722;DHT22;5412;59.450;18.124;2024-01-15T10:11:43;-3.80;99.90
10722;DHT22;5412;59.450;18.124;2024-01-15T10:14:10;-3.70;99.90
10722;DHT22;5412;59.450;18.124;2024-01-15T10:16:42;-3.80;99.90
10722;DHT22;5412;59.450;18.124;2024-01-15T10:19:08;-3.90;99.90
10722;DHT22;5412;59.450;18.124;2024-01-15T10:21:35;-3.80;99.90
10722;DHT22;5412;59.450;18.124;2024-01-15T10:24:01;-3.90;99.90
10722;DHT22;5412;59.450;18.124;2024-01-15T10:26:28;-3.90;99.90
10722;DHT22;5412;59.450;18.124;2024-01-15T10:28:54;-3.90;99.90
10722;DHT22;5412;59.450;18.124;2024-01-15T10:31:20;-4.00;99.90
10722;DHT22;5412;59.450;18.124;2024-01-15T10:33:50;-3.90;99.90
10722;DHT22;5412;59.450;18.124;2024-01-15T10:36:16;-3.80;99.90
10722;DHT22;5412;59.450;18.124;2024-01-15T10:38:45;-3.80;99.90
10722;DHT22;5412;59.450;18.124;2024-01-15T10:41:11;-3.80;99.90
10722;DHT22;5412;59.450;18.124;2024-01-15T10:43:37;-3.70;99.90
10722;DHT22;5412;59.450;18.124;2024-01-15T10:46:03;-3.60;99.90
10722;DHT22;5412;59.450;18.124;2024-01-15T10:48:29;-3.80;99.90
10722;DHT22;5412;59.450;18.124;2024-01-15T10:50:59;-3.90;99.90
10722;DHT22;5412;59.450;18.124;2024-01-15T10:53:25;-3.80;99.90
10722;DHT22;5412;59.450;18.124;2024-01-15T10:55:51;-3.60;99.90
10722;DHT22;5412;59.450;18.124;2024-01-15T10:58:20;-3.80;99.90
10722;DHT22;5412;59.450;18.124;2024-01-15T11:00:46;-3.80;99.90
10722;DHT22;5412;59.450;18.124;2024-01-15T11:03:12;-3.70;99.90
10722;DHT22;5412;59.450;18.124;2024-01-15T11:08:07;-3.60;99.90
10722;DHT22;5412;59.450;18.124;2024-01-15T11:10:46;-3.60;99.90
10722;DHT22;5412;59.450;18.124;2024-01-15T11:16:03;-3.80;99.90
10722;DHT22;5412;59.450;18.124;2024-01-15T11:21:20;-3.80;99.90
10722;DHT22;5412;59.450;18.124;2024-01-15T11:26:36;-3.70;99.90
10722;DHT22;5412;59.450;18.124;2024-01-15T11:29:07;-3.70;99.90
10722;DHT22;5412;59.450;18.124;2024-01-15T11:34:08;-3.90;99.90
10722;DHT22;5412;59.450;18.124;2024-01-15T11:37:00;-3.90;99.90
10722;DHT22;5412;59.450;18.124;2024-01-15T11:41:58;-3.90;99.90
10722;DHT22;5412;59.450;18.124;2024-01-15T11:44:24;-3.80;99.90
10722;DHT22;5412;59.450;18.124;2024-01-15T11:47:04;-3.80;99.90
10722;DHT22;5412;59.450;18.124;2024-01-15T11:49:59;-3.90;99.90
10722;DHT22;5412;59.450;18.124;2024-01-15T11:52:35;-3.80;99.90
10722;DHT22;5412;59.450;18.124;2024-01-15T11:55:10;-3.80;99.90
10722;DHT22;5412;59.450;18.124;2024-01-15T12:00:06;-3.80;99.90
10722;DHT22;5412;59.450;18.124;2024-01-15T12:02:32;-3.90;99.90
10722;DHT22;5412;59.450;18.124;2024-01-15T12:04:58;-3.90;99.90
10722;DHT22;5412;59.450;18.124;2024-01-15T12:07:24;-3.80;99.90
10722;DHT22;5412;59.450;18.124;2024-01-15T12:09:49;-3.80;99.90
10722;DHT22;5412;59.450;18.124;2024-01-15T12:12:24;-4.10;99.90
10722;DHT22;5412;59.450;18.124;2024-01-15T12:14:52;-3.90;99.90
10722;DHT22;5412;59.450;18.124;2024-01-15T12:17:18;-4.00;99.90
10722;DHT22;5412;59.450;18.124;2024-01-15T12:19:44;-3.90;99.90
10722;DHT22;5412;59.450;18.124;2024-01-15T12:22:10;-3.80;99.90
10722;DHT22;5412;59.450;18.124;2024-01-15T12:24:35;-3.80;99.90
10722;DHT22;5412;59.450;18.124;2024-01-15T12:27:02;-3.60;99.90
10722;DHT22;5412;59.450;18.124;2024-01-15T12:29:27;-3.80;99.90
10722;DHT22;5412;59.450;18.124;2024-01-15T12:31:53;-3.70;99.90
10722;DHT22;5412;59.450;18.124;2024-01-15T12:34:19;-3.70;99.90
10722;DHT22;5412;59.450;18.124;2024-01-15T12:36:48;-3.90;99.90
10722;DHT22;5412;59.450;18.124;2024-01-15T12:39:13;-3.90;99.90
10722;DHT22;5412;59.450;18.124;2024-01-15T12:41:41;-3.80;99.90
10722;DHT22;5412;59.450;18.124;2024-01-15T12:44:07;-3.90;99.90
10722;DHT22;5412;59.450;18.124;2024-01-15T12:46:32;-3.90;99.90
10722;DHT22;5412;59.450;18.124;2024-01-15T12:48:58;-3.80;99.90
10722;DHT22;5412;59.450;18.124;2024-01-15T12:51:27;-3.80;99.90
10722;DHT22;5412;59.450;18.124;2024-01-15T12:53:53;-3.70;99.90
10722;DHT22;5412;59.450;18.124;2024-01-15T12:56:19;-4.00;99.90
10722;DHT22;5412;59.450;18.124;2024-01-15T12:58:44;-4.00;99.90
10722;DHT22;5412;59.450;18.124;2024-01-15T13:01:10;-3.90;99.90
10722;DHT22;5412;59.450;18.124;2024-01-15T13:03:36;-3.80;99.90
10722;DHT22;5412;59.450;18.124;2024-01-15T13:06:02;-3.80;99.90
10722;DHT22;5412;59.450;18.124;2024-01-15T13:08:27;-3.80;99.90
10722;DHT22;5412;59.450;18.124;2024-01-15T13:10:55;-3.80;99.90
10722;DHT22;5412;59.450;18.124;2024-01-15T13:13:22;-4.00;99.90
10722;DHT22;5412;59.450;18.124;2024-01-15T13:15:47;-4.10;99.90
10722;DHT22;5412;59.450;18.124;2024-01-15T13:18:13;-4.00;99.90
10722;DHT22;5412;59.450;18.124;2024-01-15T13:20:39;-3.90;99.90
10722;DHT22;5412;59.450;18.124;2024-01-15T13:23:05;-3.90;99.90
10722;DHT22;5412;59.450;18.124;2024-01-15T13:25:31;-4.20;99.90
10722;DHT22;5412;59.450;18.124;2024-01-15T13:27:57;-4.30;99.90
10722;DHT22;5412;59.450;18.124;2024-01-15T13:30:23;-4.10;99.90
10722;DHT22;5412;59.450;18.124;2024-01-15T13:32:49;-3.90;99.90
10722;DHT22;5412;59.450;18.124;2024-01-15T13:35:14;-4.00;99.90
10722;DHT22;5412;59.450;18.124;2024-01-15T13:37:40;-4.10;99.90
10722;DHT22;5412;59.450;18.124;2024-01-15T13:40:09;-4.20;99.90
10722;DHT22;5412;59.450;18.124;2024-01-15T13:42:35;-4.30;99.90
10722;DHT22;5412;59.450;18.124;2024-01-15T13:45:05;-4.10;99.90
10722;DHT22;5412;59.450;18.124;2024-01-15T13:47:32;-4.30;99.90
10722;DHT22;5412;59.450;18.124;2024-01-15T13:49:57;-4.30;99.90
10722;DHT22;5412;59.450;18.124;2024-01-15T13:52:23;-4.30;99.90
10722;DHT22;5412;59.450;18.124;2024-01-15T13:54:49;-4.40;99.90
10722;DHT22;5412;59.450;18.124;2024-01-15T13:57:16;-4.50;99.90
10722;DHT22;5412;59.450;18.124;2024-01-15T13:59:42;-4.40;99.90
10722;DHT22;5412;59.450;18.124;2024-01-15T14:02:07;-4.40;99.90
10722;DHT22;5412;59.450;18.124;2024-01-15T14:04:33;-4.40;99.90
10722;DHT22;5412;59.450;18.124;2024-01-15T14:06:58;-4.50;99.90
10722;DHT22;5412;59.450;18.124;2024-01-15T14:09:24;-4.40;99.90
10722;DHT22;5412;59.450;18.124;2024-01-15T14:11:51;-4.30;99.90
10722;DHT22;5412;59.450;18.124;2024-01-15T14:14:17;-4.20;99.90
10722;DHT22;5412;59.450;18.124;2024-01-15T14:16:43;-4.30;99.90
10722;DHT22;5412;59.450;18.124;2024-01-15T14:19:08;-4.30;99.90
10722;DHT22;5412;59.450;18.124;2024-01-15T14:21:35;-4.30;99.90
10722;DHT22;5412;59.450;18.124;2024-01-15T14:24:01;-4.20;99.90
10722;DHT22;5412;59.450;18.124;2024-01-15T14:26:27;-4.20;99.90
10722;DHT22;5412;59.450;18.124;2024-01-15T14:28:53;-4.10;99.90
10722;DHT22;5412;59.450;18.124;2024-01-15T14:31:20;-4.00;99.90
10722;DHT22;5412;59.450;18.124;2024-01-15T14:33:46;-3.80;99.90
10722;DHT22;5412;59.450;18.124;2024-01-15T14:36:11;-3.70;99.90
10722;DHT22;5412;59.450;18.124;2024-01-15T14:38:37;-3.70;99.90
10722;DHT22;5412;59.450;18.124;2024-01-15T14:41:03;-3.60;99.90
10722;DHT22;5412;59.450;18.124;2024-01-15T14:43:29;-3.60;99.90
10722;DHT22;5412;59.450;18.124;2024-01-15T14:45:55;-3.50;99.90
10722;DHT22;5412;59.450;18.124;2024-01-15T14:48:22;-3.50;99.90
10722;DHT22;5412;59.450;18.124;2024-01-15T14:50:47;-3.50;99.90
10722;DHT22;5412;59.450;18.124;2024-01-15T14:53:13;-3.40;99.90
10722;DHT22;5412;59.450;18.124;2024-01-15T14:55:39;-3.50;99.90
10722;DHT22;5412;59.450;18.124;2024-01-15T14:58:05;-3.60;99.90
10722;DHT22;5412;59.450;18.124;2024-01-15T15:00:30;-3.80;99.90
10722;DHT22;5412;59.450;18.124;2024-01-15T15:02:56;-3.70;99.90
10722;DHT22;5412;59.450;18.124;2024-01-15T15:05:22;-4.90;99.90
10722;DHT22;5412;59.450;18.124;2024-01-15T15:07:48;-3.60;99.90
10722;DHT22;5412;59.450;18.124;2024-01-15T15:10:13;-3.50;99.90
10722;DHT22;5412;59.450;18.124;2024-01-15T15:12:40;-3.50;99.90
10722;DHT22;5412;59.450;18.124;2024-01-15T15:15:06;-3.60;99.90
10722;DHT22;5412;59.450;18.124;2024-01-15T15:17:32;-3.50;99.90
10722;DHT22;5412;59.450;18.124;2024-01-15T15:19:58;-3.60;99.90
10722;DHT22;5412;59.450;18.124;2024-01-15T15:22:24;-3.70;99.90
10722;DHT22;5412;59.450;18.124;2024-01-15T15:24:49;-3.80;99.90
10722;DHT22;5412;59.450;18.124;2024-01-15T15:27:15;-3.80;99.90
10722;DHT22;5412;59.450;18.124;2024-01-15T15:29:41;-3.80;99.90
10722;DHT22;5412;59.450;18.124;2024-01-15T15:32:06;-3.80;99.90
10722;DHT22;5412;59.450;18.124;2024-01-15T15:34:32;-4.00;99.90
10722;DHT22;5412;59.450;18.124;2024-01-15T15:36:57;-4.20;99.90
10722;DHT22;5412;59.450;18.124;2024-01-15T15:39:23;-4.10;99.90
10722;DHT22;5412;59.450;18.124;2024-01-15T15:41:49;-4.30;99.90
10722;DHT22;5412;59.450;18.124;2024-01-15T15:44:15;-4.40;99.90